Time;durP1;ratioP1;P1;durP2;ratioP2;P2;SDS_P1;SDS_P2;PMS_P1;PMS_P2;Temp;Humidity;BMP_temperature;BMP_pressure;BME280_temperature;BME280_humidity;BME280_pressure;Samples;Min_cycle;Max_cycle;Signal;HPM_P1;HPM_P2
2024/01/24 00:01:28;;;;;;;;;;;;;;;8.55;59.85;99598.74;67596;1282;1016174;-70
2024/01/24 00:04:30;;;;;;;;;;;;;;;8.58;59.94;99597.02;67576;1282;1016512;-70
2024/01/24 00:07:32;;;;;;;;;;;;;;;8.56;59.94;99599.20;67562;1282;1016341;-71
2024/01/24 00:10:35;;;;;;;;;;;;;;;8.64;59.23;99595.55;67530;1282;1016458;-72
2024/01/24 00:13:38;;;;;;;;;;;;;;;8.64;59.10;99582.52;67606;1282;1016240;-71
2024/01/24 00:16:40;;;;;;;;;;;;;;;8.67;58.96;99587.45;67592;1282;1017296;-72
2024/01/24 00:19:43;;;;;;;;;;;;;;;8.56;59.28;99590.85;67548;1282;1016100;-71
2024/01/24 00:22:45;;;;;;;;;;;;;;;8.55;59.16;99582.50;67534;1282;1016284;-72
2024/01/24 00:25:48;;;;;;;;;;;;;;;8.46;59.39;99579.91;67589;1282;1017169;-71
2024/01/24 00:28:50;;;;;;;;;;;;;;;8.47;59.19;99578.48;67585;1282;1016628;-72
2024/01/24 00:31:52;;;;;;;;;;;;;;;8.47;58.93;99579.84;67576;1282;1016527;-72
2024/01/24 00:34:55;;;;;;;;;;;;;;;8.42;58.94;99567.31;67554;1282;1016506;-71
2024/01/24 00:37:57;;;;;;;;;;;;;;;8.41;58.81;99561.60;67553;1282;1016353;-72
2024/01/24 00:41:00;;;;;;;;;;;;;;;8.38;58.96;99561.23;67580;1282;1016346;-70
2024/01/24 00:44:02;;;;;;;;;;;;;;;8.25;59.12;99557.17;67553;1282;1016291;-72
2024/01/24 00:47:06;;;;;;;;;;;;;;;8.18;59.43;99545.79;67561;1282;1016366;-71
2024/01/24 00:50:08;;;;;;;;;;;;;;;8.18;59.29;99550.34;67604;1282;1016508;-72
2024/01/24 00:53:11;;;;;;;;;;;;;;;8.18;59.12;99547.55;67579;1282;1015942;-72
2024/01/24 00:56:13;;;;;;;;;;;;;;;8.09;59.53;99546.84;67548;1282;1016153;-71
2024/01/24 00:59:16;;;;;;;;;;;;;;;8.05;59.51;99557.45;67553;1282;1016481;-71
2024/01/24 01:02:18;;;;;;;;;;;;;;;8.10;59.10;99545.77;67598;1282;1018935;-72
2024/01/24 01:05:21;;;;;;;;;;;;;;;8.09;59.28;99546.52;67595;1282;1016047;-71
2024/01/24 01:08:23;;;;;;;;;;;;;;;8.08;59.16;99542.16;67557;1282;1016386;-71
2024/01/24 01:11:26;;;;;;;;;;;;;;;8.15;58.67;99538.23;67528;1282;1018001;-71
2024/01/24 01:14:28;;;;;;;;;;;;;;;8.16;58.70;99532.46;67600;1282;1016419;-71
2024/01/24 01:17:31;;;;;;;;;;;;;;;8.22;58.25;99525.78;67592;1282;1016493;-71
2024/01/24 01:20:33;;;;;;;;;;;;;;;8.19;58.06;99527.29;67547;1282;1016465;-71
2024/01/24 01:23:36;;;;;;;;;;;;;;;8.22;57.89;99523.67;67566;1282;1016475;-71
2024/01/24 01:26:38;;;;;;;;;;;;;;;8.21;57.77;99519.17;67585;1282;1016442;-70
2024/01/24 01:29:41;;;;;;;;;;;;;;;8.11;58.05;99494.48;67600;1282;1016438;-71
2024/01/24 01:32:43;;;;;;;;;;;;;;;8.03;58.47;99469.02;67569;1282;1016333;-71
2024/01/24 01:35:46;;;;;;;;;;;;;;;8.07;58.24;99455.50;67574;1282;1016408;-71
2024/01/24 01:38:48;;;;;;;;;;;;;;;8.12;58.11;99453.34;67632;1282;1016533;-70
2024/01/24 01:41:51;;;;;;;;;;;;;;;8.03;58.09;99449.52;67612;1282;1018594;-70
2024/01/24 01:44:53;;;;;;;;;;;;;;;8.06;57.88;99443.16;67543;1282;1017027;-70
2024/01/24 01:47:57;;;;;;;;;;;;;;;7.99;57.91;99442.90;67555;1282;1016476;-71
2024/01/24 01:50:59;;;;;;;;;;;;;;;8.02;57.80;99428.85;67552;1282;1016344;-69
2024/01/24 01:54:02;;;;;;;;;;;;;;;7.97;57.84;99422.61;67558;1282;1016511;-71
2024/01/24 01:57:05;;;;;;;;;;;;;;;8.01;57.50;99418.80;67585;1282;1016224;-71
2024/01/24 02:00:08;;;;;;;;;;;;;;;7.94;57.57;99407.38;67559;1282;1016197;-64
2024/01/24 02:03:10;;;;;;;;;;;;;;;7.84;57.77;99385.67;67609;1282;1016498;-69
2024/01/24 02:06:13;;;;;;;;;;;;;;;7.88;57.61;99381.02;67586;1282;1016211;-71
2024/01/24 02:09:15;;;;;;;;;;;;;;;7.92;57.31;99376.66;67558;1282;1016469;-71
2024/01/24 02:12:18;;;;;;;;;;;;;;;7.94;57.26;99374.50;67555;1282;1016369;-71
2024/01/24 02:15:21;;;;;;;;;;;;;;;7.86;57.58;99378.13;67597;1282;1016525;-71
2024/01/24 02:18:24;;;;;;;;;;;;;;;7.86;57.64;99361.58;67555;1282;1016458;-71
2024/01/24 02:21:27;;;;;;;;;;;;;;;7.84;57.73;99355.60;67591;1282;1016459;-71
2024/01/24 02:24:30;;;;;;;;;;;;;;;7.79;57.84;99341.86;67552;1282;1016497;-67
2024/01/24 02:27:32;;;;;;;;;;;;;;;7.72;57.99;99333.96;67549;1282;1016494;-70
2024/01/24 02:30:35;;;;;;;;;;;;;;;7.72;57.86;99328.02;67599;1282;1015991;-70
2024/01/24 02:33:37;;;;;;;;;;;;;;;7.73;57.84;99320.70;67602;1282;1017508;-70
2024/01/24 02:36:40;;;;;;;;;;;;;;;7.78;57.68;99316.29;67540;1282;1016510;-71
2024/01/24 02:39:42;;;;;;;;;;;;;;;7.76;57.79;99308.37;67538;1282;1016411;-71
2024/01/24 02:42:45;;;;;;;;;;;;;;;7.82;57.59;99297.49;67586;1282;1015981;-71
2024/01/24 02:45:47;;;;;;;;;;;;;;;7.77;57.82;99278.73;67583;1282;1016350;-71
2024/01/24 02:48:50;;;;;;;;;;;;;;;7.86;57.94;99267.41;67550;1282;1016493;-71
2024/01/24 02:51:52;;;;;;;;;;;;;;;7.90;57.70;99260.23;67558;1282;1018419;-71
2024/01/24 02:54:55;;;;;;;;;;;;;;;7.88;57.79;99265.92;67562;1282;1016528;-71
2024/01/24 02:57:57;;;;;;;;;;;;;;;7.89;57.75;99255.40;67558;1282;1016482;-71
2024/01/24 03:01:00;;;;;;;;;;;;;;;7.93;57.73;99254.55;67524;1282;1016404;-71
2024/01/24 03:04:02;;;;;;;;;;;;;;;7.93;57.80;99246.19;67551;1282;1016359;-71
2024/01/24 03:07:05;;;;;;;;;;;;;;;8.03;57.65;99237.21;67593;1282;1016465;-71
2024/01/24 03:10:08;;;;;;;;;;;;;;;8.04;57.66;99228.48;67570;1282;1016283;-71
2024/01/24 03:13:10;;;;;;;;;;;;;;;8.17;57.24;99223.02;67555;1282;1016893;-71
2024/01/24 03:16:13;;;;;;;;;;;;;;;8.14;57.13;99210.05;67533;1282;1018705;-71
2024/01/24 03:19:15;;;;;;;;;;;;;;;8.13;57.36;99195.69;67564;1282;1017022;-72
2024/01/24 03:22:18;;;;;;;;;;;;;;;8.11;57.38;99193.30;67568;1282;1016333;-71
2024/01/24 03:25:21;;;;;;;;;;;;;;;8.06;57.68;99181.00;67514;1282;1016517;-71
2024/01/24 03:28:23;;;;;;;;;;;;;;;8.05;57.76;99169.19;67527;1282;1016484;-71
2024/01/24 03:31:26;;;;;;;;;;;;;;;8.00;57.97;99158.44;67572;1282;1017183;-72
2024/01/24 03:34:30;;;;;;;;;;;;;;;8.00;58.25;99158.63;67531;1282;1016490;-71
2024/01/24 03:37:32;;;;;;;;;;;;;;;7.93;58.47;99143.61;64984;1281;6364747;-71
2024/01/24 03:40:35;;;;;;;;;;;;;;;7.90;58.69;99130.52;67594;1282;1015915;-71
2024/01/24 03:43:38;;;;;;;;;;;;;;;7.89;58.80;99118.04;67580;1282;1016520;-71
2024/01/24 03:46:49;;;;;;;;;;;;;;;7.95;58.84;99111.14;67562;1282;1016941;-71
2024/01/24 03:49:51;;;;;;;;;;;;;;;8.01;58.38;99112.11;67534;1282;1016484;-69
2024/01/24 03:52:54;;;;;;;;;;;;;;;8.08;58.09;99114.05;67557;1282;1017642;-71
2024/01/24 03:55:56;;;;;;;;;;;;;;;8.13;58.02;99115.88;67580;1282;1016512;-71
2024/01/24 03:58:58;;;;;;;;;;;;;;;8.22;57.67;99104.86;67587;1282;1016583;-71
2024/01/24 04:02:01;;;;;;;;;;;;;;;8.25;57.80;99093.73;67532;1282;1016291;-70
2024/01/24 04:05:04;;;;;;;;;;;;;;;8.29;57.68;99083.98;67535;1282;1018306;-71
2024/01/24 04:08:06;;;;;;;;;;;;;;;8.38;57.07;99071.69;67583;1282;1016396;-71
2024/01/24 04:11:09;;;;;;;;;;;;;;;8.51;56.71;99065.71;67544;1282;1016458;-71
2024/01/24 04:14:11;;;;;;;;;;;;;;;8.41;57.24;99062.84;67531;1282;1016461;-70
2024/01/24 04:17:14;;;;;;;;;;;;;;;8.38;57.24;99046.78;67530;1282;1016359;-71
2024/01/24 04:20:16;;;;;;;;;;;;;;;8.46;57.30;99041.89;67571;1282;1016534;-71
2024/01/24 04:23:19;;;;;;;;;;;;;;;8.53;56.98;99031.80;67578;1282;1016044;-71
2024/01/24 04:26:21;;;;;;;;;;;;;;;8.58;56.45;99032.96;67544;1282;1017388;-70
2024/01/24 04:29:23;;;;;;;;;;;;;;;8.62;55.93;99043.36;67519;1282;1016504;-71
2024/01/24 04:32:26;;;;;;;;;;;;;;;8.69;56.14;99041.11;67580;1282;1016539;-71
2024/01/24 04:35:28;;;;;;;;;;;;;;;8.69;56.17;99027.36;67583;1282;1016271;-71
2024/01/24 04:38:31;;;;;;;;;;;;;;;8.72;56.24;99014.84;67531;1282;1016910;-70
2024/01/24 04:41:33;;;;;;;;;;;;;;;8.62;56.64;98998.36;67516;1282;1015964;-71
2024/01/24 04:44:36;;;;;;;;;;;;;;;8.65;56.26;98986.20;67569;1282;1018430;-71
2024/01/24 04:47:42;;;;;;;;;;;;;;;8.76;56.23;98985.85;67536;1282;1015946;-71
2024/01/24 04:50:45;;;;;;;;;;;;;;;8.79;55.84;98983.26;67528;1282;1016449;-71
2024/01/24 04:53:47;;;;;;;;;;;;;;;8.71;56.59;98980.52;67546;1282;1016398;-71
2024/01/24 04:56:50;;;;;;;;;;;;;;;8.87;56.17;98975.55;67562;1282;1016393;-71
2024/01/24 04:59:53;;;;;;;;;;;;;;;8.92;56.14;98979.12;67508;1282;1016491;-71
2024/01/24 05:02:55;;;;;;;;;;;;;;;8.93;56.12;98966.65;67538;1282;1018158;-71
2024/01/24 05:05:58;;;;;;;;;;;;;;;8.99;55.73;98953.81;67560;1282;1016424;-71
2024/01/24 05:09:01;;;;;;;;;;;;;;;8.95;56.41;98946.50;67584;1282;1016258;-71
2024/01/24 05:12:03;;;;;;;;;;;;;;;8.92;56.51;98928.88;67587;1282;1016422;-71
2024/01/24 05:15:08;;;;;;;;;;;;;;;8.93;56.37;98921.66;67530;1282;1016651;-71
2024/01/24 05:18:10;;;;;;;;;;;;;;;8.93;56.62;98908.80;67546;1282;1017779;-72
2024/01/24 05:21:13;;;;;;;;;;;;;;;9.01;56.20;98900.83;67579;1282;1015990;-72
2024/01/24 05:24:15;;;;;;;;;;;;;;;9.08;56.04;98906.07;67529;1282;1016459;-71
2024/01/24 05:27:18;;;;;;;;;;;;;;;9.00;56.63;98898.45;67513;1282;1016090;-71
2024/01/24 05:30:21;;;;;;;;;;;;;;;8.99;56.54;98893.98;67594;1282;1016413;-71
2024/01/24 05:33:23;;;;;;;;;;;;;;;9.01;56.23;98881.46;67597;1282;1016180;-71
2024/01/24 05:36:26;;;;;;;;;;;;;;;9.08;56.59;98884.26;67536;1282;1016208;-71
2024/01/24 05:39:29;;;;;;;;;;;;;;;9.17;56.85;98885.54;67563;1282;1016503;-71
2024/01/24 05:42:32;;;;;;;;;;;;;;;9.18;57.88;98881.60;67530;1282;1016434;-69
2024/01/24 05:45:35;;;;;;;;;;;;;;;9.11;59.03;98869.79;67591;1282;1016356;-71
2024/01/24 05:48:37;;;;;;;;;;;;;;;9.10;59.63;98862.00;67577;1282;1016568;-71
2024/01/24 05:51:42;;;;;;;;;;;;;;;9.04;61.02;98845.38;67550;1282;1016274;-71
2024/01/24 05:54:44;;;;;;;;;;;;;;;9.07;61.42;98839.11;67580;1282;1016458;-71
2024/01/24 05:57:47;;;;;;;;;;;;;;;8.99;63.21;98831.54;67562;1282;1016166;-71
2024/01/24 06:00:50;;;;;;;;;;;;;;;9.04;63.78;98817.66;67536;1282;1015908;-71
2024/01/24 06:03:52;;;;;;;;;;;;;;;8.99;64.73;98825.08;67507;1282;1016392;-72
2024/01/24 06:07:00;;;;;;;;;;;;;;;8.94;65.75;98817.32;67570;1282;1016363;-72
2024/01/24 06:10:02;;;;;;;;;;;;;;;8.94;66.03;98808.96;67525;1282;1015804;-69
2024/01/24 06:13:05;;;;;;;;;;;;;;;8.96;66.54;98801.70;67582;1282;1016313;-72
2024/01/24 06:16:07;;;;;;;;;;;;;;;8.91;67.24;98795.16;67587;1282;1016327;-71
2024/01/24 06:19:10;;;;;;;;;;;;;;;8.96;67.45;98786.20;67540;1282;1016520;-71
2024/01/24 06:22:12;;;;;;;;;;;;;;;8.75;69.61;98769.70;67530;1282;1018212;-72
2024/01/24 06:25:15;;;;;;;;;;;;;;;8.76;69.72;98750.85;67541;1282;1016350;-71
2024/01/24 06:28:17;;;;;;;;;;;;;;;8.79;69.73;98738.09;67573;1282;1016325;-71
2024/01/24 06:31:20;;;;;;;;;;;;;;;8.79;70.26;98726.25;67556;1282;1016395;-72
2024/01/24 06:34:22;;;;;;;;;;;;;;;8.84;71.36;98726.35;67526;1282;1016427;-72
2024/01/24 06:37:25;;;;;;;;;;;;;;;8.89;71.34;98734.41;67575;1282;1016544;-72
2024/01/24 06:40:27;;;;;;;;;;;;;;;8.85;72.03;98724.73;67577;1282;1016262;-71
2024/01/24 06:43:30;;;;;;;;;;;;;;;8.90;71.25;98737.33;67568;1282;1015902;-72
2024/01/24 06:46:33;;;;;;;;;;;;;;;8.84;72.21;98740.62;67531;1282;1016472;-72
2024/01/24 06:49:35;;;;;;;;;;;;;;;8.82;71.99;98735.33;67553;1282;1016417;-72
2024/01/24 06:52:37;;;;;;;;;;;;;;;8.88;71.92;98743.91;67565;1282;1016411;-71
2024/01/24 06:55:40;;;;;;;;;;;;;;;8.88;73.24;98741.13;67524;1282;1018596;-71
2024/01/24 06:58:42;;;;;;;;;;;;;;;8.90;72.78;98736.64;67512;1282;1016360;-72
2024/01/24 07:01:45;;;;;;;;;;;;;;;8.89;72.51;98732.66;67548;1282;1016626;-72
2024/01/24 07:04:47;;;;;;;;;;;;;;;8.92;73.25;98717.87;67555;1282;1016398;-71
2024/01/24 07:07:50;;;;;;;;;;;;;;;8.79;74.70;98705.51;67542;1282;1016333;-69
2024/01/24 07:10:52;;;;;;;;;;;;;;;8.79;74.84;98691.02;67487;1282;1016618;-71
2024/01/24 07:13:55;;;;;;;;;;;;;;;8.89;74.43;98676.17;67483;1282;1016447;-71
2024/01/24 07:16:57;;;;;;;;;;;;;;;8.90;74.91;98660.41;67578;1282;1018647;-71
2024/01/24 07:20:00;;;;;;;;;;;;;;;8.95;74.90;98644.94;67573;1282;1016375;-71
2024/01/24 07:23:02;;;;;;;;;;;;;;;8.86;75.86;98631.17;67534;1282;1016504;-70
2024/01/24 07:26:05;;;;;;;;;;;;;;;8.87;76.34;98625.70;67542;1282;1016263;-72
2024/01/24 07:29:07;;;;;;;;;;;;;;;9.02;75.73;98626.09;67558;1282;1016315;-72
2024/01/24 07:32:10;;;;;;;;;;;;;;;9.14;74.89;98610.07;67562;1282;1015971;-73
2024/01/24 07:35:12;;;;;;;;;;;;;;;9.16;74.85;98605.06;67510;1282;1016420;-70
2024/01/24 07:38:15;;;;;;;;;;;;;;;9.22;74.57;98609.05;67506;1282;1016690;-72
2024/01/24 07:41:17;;;;;;;;;;;;;;;9.22;74.80;98617.24;67561;1282;1017177;-71
2024/01/24 07:44:20;;;;;;;;;;;;;;;9.07;77.52;98613.24;67581;1282;1016916;-72
2024/01/24 07:47:23;;;;;;;;;;;;;;;9.12;77.58;98593.42;67499;1282;1018146;-72
2024/01/24 07:50:27;;;;;;;;;;;;;;;9.27;76.94;98586.98;67546;1282;1016399;-71
2024/01/24 07:53:29;;;;;;;;;;;;;;;9.31;76.37;98578.52;67526;1282;1016373;-71
2024/01/24 07:56:32;;;;;;;;;;;;;;;9.27;76.72;98577.85;67547;1282;1016450;-71
2024/01/24 07:59:35;;;;;;;;;;;;;;;9.21;77.59;98567.94;67529;1282;1016443;-72
2024/01/24 08:02:37;;;;;;;;;;;;;;;9.42;76.35;98544.33;67521;1282;1016522;-71
2024/01/24 08:05:40;;;;;;;;;;;;;;;9.54;75.58;98523.22;67512;1282;1016353;-71
2024/01/24 08:08:42;;;;;;;;;;;;;;;9.61;75.65;98503.04;67548;1282;1016405;-72
2024/01/24 08:11:44;;;;;;;;;;;;;;;9.52;76.61;98507.42;67576;1282;1016480;-72
2024/01/24 08:14:47;;;;;;;;;;;;;;;9.40;78.58;98496.15;67522;1282;1016310;-72
2024/01/24 08:17:49;;;;;;;;;;;;;;;9.40;78.97;98472.23;67507;1282;1016162;-72
2024/01/24 08:20:52;;;;;;;;;;;;;;;9.50;79.60;98471.61;67575;1282;1017053;-72
2024/01/24 08:23:55;;;;;;;;;;;;;;;9.73;77.69;98465.64;67524;1282;1016435;-72
2024/01/24 08:26:58;;;;;;;;;;;;;;;9.70;78.82;98459.71;67529;1282;1015928;-72
2024/01/24 08:30:01;;;;;;;;;;;;;;;9.78;78.88;98449.80;67556;1282;1016453;-72
2024/01/24 08:33:04;;;;;;;;;;;;;;;9.73;79.98;98442.96;67504;1282;1018306;-73
2024/01/24 08:36:06;;;;;;;;;;;;;;;9.79;80.19;98442.41;67545;1282;1016506;-72
2024/01/24 08:39:09;;;;;;;;;;;;;;;9.74;81.75;98429.95;67577;1282;1016502;-71
2024/01/24 08:42:12;;;;;;;;;;;;;;;9.87;80.89;98413.61;67507;1282;1015888;-72
2024/01/24 08:45:14;;;;;;;;;;;;;;;10.03;79.84;98410.45;67561;1282;1019888;-72
2024/01/24 08:48:20;;;;;;;;;;;;;;;10.05;80.02;98412.40;67531;1282;1016425;-72
2024/01/24 08:51:25;;;;;;;;;;;;;;;10.03;80.39;98412.74;67567;1282;1016296;-72
2024/01/24 08:54:27;;;;;;;;;;;;;;;9.92;82.83;98402.10;67548;1282;1016495;-72
2024/01/24 08:57:30;;;;;;;;;;;;;;;10.04;81.32;98407.09;67492;1282;1016378;-72
2024/01/24 09:00:32;;;;;;;;;;;;;;;10.04;82.30;98403.61;67490;1282;1016423;-72
2024/01/24 09:03:35;;;;;;;;;;;;;;;10.16;81.48;98390.57;67557;1282;1016447;-72
2024/01/24 09:06:37;;;;;;;;;;;;;;;10.12;83.64;98391.20;67566;1282;1016325;-72
2024/01/24 09:09:40;;;;;;;;;;;;;;;10.18;82.93;98385.36;67510;1282;1016378;-72
2024/01/24 09:12:42;;;;;;;;;;;;;;;10.14;84.21;98383.01;67501;1282;1016400;-71
2024/01/24 09:15:45;;;;;;;;;;;;;;;10.11;85.83;98370.79;67525;1282;1016381;-71
2024/01/24 09:18:47;;;;;;;;;;;;;;;10.10;86.05;98369.48;67529;1282;1016529;-72
2024/01/24 09:21:50;;;;;;;;;;;;;;;10.06;88.58;98356.61;67503;1282;1016421;-72
2024/01/24 09:24:52;;;;;;;;;;;;;;;10.07;89.62;98343.10;67502;1282;1016481;-72
2024/01/24 09:27:56;;;;;;;;;;;;;;;10.08;90.48;98340.41;67548;1282;1016442;-69
2024/01/24 09:30:59;;;;;;;;;;;;;;;10.13;89.90;98326.67;67506;1282;1016413;-73
2024/01/24 09:34:02;;;;;;;;;;;;;;;10.19;90.82;98317.64;67531;1282;1016427;-72
2024/01/24 09:37:05;;;;;;;;;;;;;;;10.32;91.07;98294.62;67557;1282;1019205;-71
2024/01/24 09:40:07;;;;;;;;;;;;;;;10.33;92.30;98305.20;67553;1282;1016412;-72
2024/01/24 09:43:10;;;;;;;;;;;;;;;10.21;96.39;98323.30;67498;1282;1016029;-72
2024/01/24 09:46:12;;;;;;;;;;;;;;;10.39;94.03;98315.67;67525;1282;1016364;-72
2024/01/24 09:49:17;;;;;;;;;;;;;;;10.50;93.80;98317.01;67568;1282;1016461;-72
2024/01/24 09:52:23;;;;;;;;;;;;;;;10.43;96.11;98318.20;67508;1282;1016473;-73
2024/01/24 09:55:27;;;;;;;;;;;;;;;10.46;96.59;98294.21;67509;1282;1016299;-72
2024/01/24 09:58:30;;;;;;;;;;;;;;;10.40;98.66;98300.23;67513;1282;1016513;-73
2024/01/24 10:01:32;;;;;;;;;;;;;;;10.37;100.00;98304.44;67520;1282;1016626;-73
2024/01/24 10:04:37;;;;;;;;;;;;;;;10.34;100.00;98302.70;67555;1282;1016206;-72
2024/01/24 10:07:40;;;;;;;;;;;;;;;10.43;100.00;98306.17;67543;1282;1018705;-73
2024/01/24 10:10:42;;;;;;;;;;;;;;;10.49;100.00;98281.45;67508;1282;1016386;-72
2024/01/24 10:13:45;;;;;;;;;;;;;;;10.58;100.00;98281.33;67513;1282;1016251;-72
2024/01/24 10:16:47;;;;;;;;;;;;;;;10.59;100.00;98278.48;67538;1282;1016680;-73
2024/01/24 10:19:50;;;;;;;;;;;;;;;10.64;100.00;98279.36;67539;1282;1016405;-73
2024/01/24 10:22:53;;;;;;;;;;;;;;;10.61;100.00;98274.64;67513;1282;1016482;-72
2024/01/24 10:25:55;;;;;;;;;;;;;;;10.59;100.00;98264.14;67563;1282;1016348;-72
2024/01/24 10:28:58;;;;;;;;;;;;;;;10.79;99.99;98264.14;67566;1282;1016605;-72
2024/01/24 10:32:01;;;;;;;;;;;;;;;10.89;100.00;98260.59;67502;1282;1016334;-72
2024/01/24 10:35:04;;;;;;;;;;;;;;;10.86;99.98;98247.70;67558;1282;1016433;-72
2024/01/24 10:38:07;;;;;;;;;;;;;;;10.96;99.89;98221.44;67503;1282;1016429;-72
2024/01/24 10:41:09;;;;;;;;;;;;;;;11.20;97.95;98213.26;67537;1282;1019586;-72
2024/01/24 10:44:12;;;;;;;;;;;;;;;11.25;98.36;98222.53;67530;1282;1016335;-72
2024/01/24 10:47:14;;;;;;;;;;;;;;;11.25;98.47;98223.58;67499;1282;1016406;-73
2024/01/24 10:50:17;;;;;;;;;;;;;;;11.30;98.28;98218.00;67504;1282;1016442;-72
2024/01/24 10:53:19;;;;;;;;;;;;;;;11.51;96.56;98205.77;67547;1282;1016403;-71
2024/01/24 10:56:22;;;;;;;;;;;;;;;11.77;93.43;98202.55;67571;1282;1018376;-72
2024/01/24 10:59:24;;;;;;;;;;;;;;;11.84;92.63;98198.05;67509;1282;1016728;-69
2024/01/24 11:02:27;;;;;;;;;;;;;;;12.15;89.50;98189.18;67518;1282;1017331;-71
2024/01/24 11:05:29;;;;;;;;;;;;;;;11.97;90.35;98188.64;67571;1282;1016197;-72
2024/01/24 11:08:32;;;;;;;;;;;;;;;12.10;89.27;98179.42;67554;1282;1016402;-70
2024/01/24 11:11:34;;;;;;;;;;;;;;;12.17;89.51;98173.45;67539;1282;1016392;-72
2024/01/24 11:14:37;;;;;;;;;;;;;;;12.18;89.88;98184.77;67480;1282;1016201;-72
2024/01/24 11:17:39;;;;;;;;;;;;;;;12.22;89.12;98185.63;67560;1282;1016416;-72
2024/01/24 11:20:42;;;;;;;;;;;;;;;12.19;89.68;98188.89;67548;1282;1016280;-72
2024/01/24 11:23:44;;;;;;;;;;;;;;;12.21;89.70;98179.80;67547;1282;1016467;-72
2024/01/24 11:26:47;;;;;;;;;;;;;;;12.46;86.80;98180.15;67552;1282;1016492;-72
2024/01/24 11:29:50;;;;;;;;;;;;;;;12.59;84.89;98171.58;67561;1282;1016095;-73
2024/01/24 11:32:54;;;;;;;;;;;;;;;12.73;83.75;98170.61;67538;1282;1017538;-72
2024/01/24 11:35:57;;;;;;;;;;;;;;;13.06;81.01;98167.48;67541;1282;1016524;-72
2024/01/24 11:39:00;;;;;;;;;;;;;;;13.03;81.04;98168.19;67583;1282;1016410;-72
2024/01/24 11:42:02;;;;;;;;;;;;;;;13.14;80.81;98168.34;67534;1282;1016193;-72
2024/01/24 11:45:05;;;;;;;;;;;;;;;13.31;79.54;98167.01;67508;1282;1016772;-72
2024/01/24 11:48:08;;;;;;;;;;;;;;;13.35;78.93;98182.66;67593;1282;1016208;-72
2024/01/24 11:51:11;;;;;;;;;;;;;;;13.27;79.16;98182.94;67525;1282;1016246;-72
2024/01/24 11:54:14;;;;;;;;;;;;;;;13.40;78.65;98175.21;67551;1282;1016493;-72
2024/01/24 11:57:16;;;;;;;;;;;;;;;13.51;77.44;98159.41;67574;1282;1017470;-72
2024/01/24 12:00:19;;;;;;;;;;;;;;;13.54;77.88;98161.27;67514;1282;1016425;-72
2024/01/24 12:03:24;;;;;;;;;;;;;;;13.54;78.41;98162.64;67587;1282;1016710;-72
2024/01/24 12:06:27;;;;;;;;;;;;;;;13.40;79.02;98191.52;67562;1282;1016472;-71
2024/01/24 12:09:30;;;;;;;;;;;;;;;13.35;80.51;98192.48;67555;1282;1016309;-73
2024/01/24 12:12:34;;;;;;;;;;;;;;;13.41;81.33;98175.17;67562;1282;1016296;-72
2024/01/24 12:15:37;;;;;;;;;;;;;;;13.43;81.48;98164.98;67553;1282;1016422;-72
2024/01/24 12:18:39;;;;;;;;;;;;;;;13.42;81.62;98173.10;67524;1282;1016391;-72
2024/01/24 12:21:42;;;;;;;;;;;;;;;13.49;81.23;98164.11;67572;1282;1016535;-73
2024/01/24 12:24:44;;;;;;;;;;;;;;;13.44;82.00;98175.40;67567;1282;1016461;-73
2024/01/24 12:27:47;;;;;;;;;;;;;;;13.39;82.22;98150.70;67522;1282;1016533;-72
2024/01/24 12:30:49;;;;;;;;;;;;;;;13.41;82.66;98165.12;67529;1282;1016959;-72
2024/01/24 12:33:52;;;;;;;;;;;;;;;13.52;81.34;98170.23;67580;1282;1016464;-73
2024/01/24 12:36:55;;;;;;;;;;;;;;;13.42;82.43;98178.55;67581;1282;1016435;-73
2024/01/24 12:40:00;;;;;;;;;;;;;;;13.30;83.95;98165.69;67540;1282;1016460;-72
2024/01/24 12:43:03;;;;;;;;;;;;;;;13.27;83.79;98166.80;67588;1282;1016391;-73
2024/01/24 12:46:06;;;;;;;;;;;;;;;13.11;84.81;98165.81;67526;1282;1016854;-72
2024/01/24 12:49:08;;;;;;;;;;;;;;;12.99;85.83;98166.23;67572;1282;1016208;-72
2024/01/24 12:52:11;;;;;;;;;;;;;;;12.86;87.29;98174.70;67565;1282;1016500;-72
2024/01/24 12:55:14;;;;;;;;;;;;;;;12.86;88.36;98166.61;67541;1282;1016291;-72
2024/01/24 12:58:17;;;;;;;;;;;;;;;12.89;88.28;98166.52;67553;1282;1018320;-73
2024/01/24 13:01:19;;;;;;;;;;;;;;;12.96;87.50;98159.27;67540;1282;1016474;-72
2024/01/24 13:04:22;;;;;;;;;;;;;;;12.95;87.35;98180.45;67506;1282;1016530;-73
2024/01/24 13:07:24;;;;;;;;;;;;;;;12.77;89.25;98172.54;67582;1282;1016476;-72
2024/01/24 13:10:28;;;;;;;;;;;;;;;12.74;90.58;98165.29;67556;1282;1016440;-73
2024/01/24 13:13:31;;;;;;;;;;;;;;;12.91;88.52;98171.13;67592;1282;1016326;-72
2024/01/24 13:16:33;;;;;;;;;;;;;;;12.80;89.87;98167.73;67567;1282;1017248;-73
2024/01/24 13:19:36;;;;;;;;;;;;;;;12.83;89.53;98174.20;67532;1282;1016536;-73
2024/01/24 13:22:38;;;;;;;;;;;;;;;12.98;87.42;98155.98;67514;1282;1016571;-73
2024/01/24 13:25:41;;;;;;;;;;;;;;;13.16;85.67;98159.23;67576;1282;1016435;-72
2024/01/24 13:28:43;;;;;;;;;;;;;;;13.32;84.74;98152.73;67599;1282;1016740;-72
2024/01/24 13:31:46;;;;;;;;;;;;;;;13.20;86.26;98178.27;67525;1282;1016193;-72
2024/01/24 13:34:49;;;;;;;;;;;;;;;13.32;84.69;98186.21;67559;1282;1016509;-72
2024/01/24 13:37:52;;;;;;;;;;;;;;;13.32;85.09;98178.98;67525;1282;1015989;-73
2024/01/24 13:40:54;;;;;;;;;;;;;;;13.30;85.14;98183.61;67517;1282;1016067;-72
2024/01/24 13:43:57;;;;;;;;;;;;;;;13.33;84.79;98165.41;67588;1282;1016379;-68
2024/01/24 13:46:59;;;;;;;;;;;;;;;13.08;87.32;98171.98;67518;1282;1016149;-73
2024/01/24 13:50:02;;;;;;;;;;;;;;;12.82;90.77;98154.09;67525;1282;1016452;-72
2024/01/24 13:53:05;;;;;;;;;;;;;;;12.98;89.69;98115.77;67574;1282;1016124;-72
2024/01/24 13:56:08;;;;;;;;;;;;;;;13.02;90.67;98126.86;67506;1282;1016364;-72
2024/01/24 13:59:11;;;;;;;;;;;;;;;12.89;93.49;98139.34;67569;1282;1016540;-71
2024/01/24 14:02:13;;;;;;;;;;;;;;;12.96;93.21;98147.86;67608;1282;1016851;-72
2024/01/24 14:05:16;;;;;;;;;;;;;;;13.13;90.66;98153.88;67550;1282;1016390;-73
2024/01/24 14:08:18;;;;;;;;;;;;;;;13.09;91.65;98159.29;67532;1282;1017480;-73
2024/01/24 14:11:21;;;;;;;;;;;;;;;12.78;95.12;98151.11;67570;1282;1016463;-73
2024/01/24 14:14:23;;;;;;;;;;;;;;;12.94;93.60;98123.85;67555;1282;1016368;-73
2024/01/24 14:17:26;;;;;;;;;;;;;;;13.06;91.48;98076.83;67562;1282;1016493;-73
2024/01/24 14:20:28;;;;;;;;;;;;;;;13.22;89.85;98141.04;67524;1282;1016483;-73
2024/01/24 14:23:31;;;;;;;;;;;;;;;13.42;87.09;98126.23;67593;1282;1018267;-73
2024/01/24 14:26:34;;;;;;;;;;;;;;;13.43;85.80;98130.90;67520;1282;1017673;-73
2024/01/24 14:29:37;;;;;;;;;;;;;;;13.15;87.60;98158.66;67517;1282;1016299;-73
2024/01/24 14:32:39;;;;;;;;;;;;;;;13.25;86.31;98160.98;67542;1282;1016043;-73
2024/01/24 14:35:42;;;;;;;;;;;;;;;13.30;85.39;98170.63;67483;1282;1016317;-72
2024/01/24 14:38:45;;;;;;;;;;;;;;;13.36;84.82;98183.65;67555;1282;1016368;-73
2024/01/24 14:41:47;;;;;;;;;;;;;;;13.38;84.37;98191.70;67549;1282;1016488;-72
2024/01/24 14:44:50;;;;;;;;;;;;;;;13.42;84.41;98204.93;67539;1282;1016453;-72
2024/01/24 14:47:53;;;;;;;;;;;;;;;13.37;85.88;98210.63;67552;1282;1017670;-73
2024/01/24 14:50:56;;;;;;;;;;;;;;;13.35;86.49;98211.45;67551;1282;1016377;-72
2024/01/24 14:53:58;;;;;;;;;;;;;;;13.32;88.20;98221.68;67525;1281;1016242;-73
2024/01/24 14:57:01;;;;;;;;;;;;;;;13.35;88.19;98225.33;67585;1282;1016253;-73
2024/01/24 15:00:09;;;;;;;;;;;;;;;13.36;88.07;98210.31;67585;1282;1016162;-73
2024/01/24 15:03:12;;;;;;;;;;;;;;;13.37;86.60;98206.73;67543;1282;1016321;-73
2024/01/24 15:06:14;;;;;;;;;;;;;;;13.23;86.78;98210.27;67546;1282;1016143;-73
2024/01/24 15:09:19;;;;;;;;;;;;;;;13.22;86.06;98219.84;67533;1282;1016307;-71
2024/01/24 15:12:21;;;;;;;;;;;;;;;13.34;84.24;98223.48;67571;1282;1016424;-73
2024/01/24 15:15:25;;;;;;;;;;;;;;;13.42;83.47;98225.61;67552;1282;1016898;-73
2024/01/24 15:18:28;;;;;;;;;;;;;;;13.38;84.42;98232.77;67577;1282;1016460;-72
2024/01/24 15:21:31;;;;;;;;;;;;;;;13.41;85.13;98228.86;67542;1282;1016144;-73
2024/01/24 15:24:34;;;;;;;;;;;;;;;13.39;85.85;98224.28;67580;1282;1016444;-72
2024/01/24 15:27:39;;;;;;;;;;;;;;;13.58;83.93;98213.48;67595;1282;1016603;-73
2024/01/24 15:30:41;;;;;;;;;;;;;;;13.59;83.10;98218.59;67540;1282;1016085;-72
2024/01/24 15:33:44;;;;;;;;;;;;;;;13.52;83.47;98225.48;67591;1282;1016534;-73